Time;durP1;ratioP1;P1;durP2;ratioP2;P2;SDS_P1;SDS_P2;PMS_P1;PMS_P2;Temp;Humidity;BMP_temperature;BMP_pressure;BME280_temperature;BME280_humidity;BME280_pressure;Samples;Min_cycle;Max_cycle;Signal;HPM_P1;HPM_P2
2021/11/18 00:00:14;;;;;;;;;;;;;;;2.24;62.48;96451.53;4999919;28;19921;-71
2021/11/18 00:02:39;;;;;;;;;;;;;;;2.19;62.79;96458.03;4983746;28;19956;-70
2021/11/18 00:05:05;;;;;;;;;;;;;;;2.13;62.74;96460.16;5017532;28;20003;-70
2021/11/18 00:07:31;;;;;;;;;;;;;;;1.93;63.63;96466.72;5000178;28;19937;-70
2021/11/18 00:09:56;;;;;;;;;;;;;;;2.00;63.00;96465.38;5000032;28;19920;-70
2021/11/18 00:12:21;;;;;;;;;;;;;;;1.99;63.51;96462.84;4998629;28;19925;-71
2021/11/18 00:14:47;;;;;;;;;;;;;;;2.33;62.61;96446.56;5016347;28;20008;-71
2021/11/18 00:17:12;;;;;;;;;;;;;;;2.44;61.73;96453.72;5017194;28;19921;-71
2021/11/18 00:19:37;;;;;;;;;;;;;;;2.32;62.35;96450.16;5021435;28;19921;-71
2021/11/18 00:22:03;;;;;;;;;;;;;;;2.65;61.52;96436.47;5020761;28;20141;-70
2021/11/18 00:24:28;;;;;;;;;;;;;;;3.17;59.96;96449.47;5020825;28;20567;-70
2021/11/18 00:26:54;;;;;;;;;;;;;;;3.35;58.48;96448.25;5021509;28;19928;-68
2021/11/18 00:29:20;;;;;;;;;;;;;;;3.55;57.89;96438.91;5003130;28;19921;-70
2021/11/18 00:31:46;;;;;;;;;;;;;;;3.54;57.96;96438.06;5021200;28;20477;-70
2021/11/18 00:34:11;;;;;;;;;;;;;;;3.23;58.70;96436.84;5020687;28;20284;-70
2021/11/18 00:36:36;;;;;;;;;;;;;;;3.24;58.76;96431.47;5020543;28;19933;-70
2021/11/18 00:39:04;;;;;;;;;;;;;;;3.82;57.22;96416.75;5021510;28;19952;-70
2021/11/18 00:41:31;;;;;;;;;;;;;;;3.43;58.66;96417.78;5002035;28;20011;-70
2021/11/18 00:43:56;;;;;;;;;;;;;;;3.62;58.34;96419.09;5020326;28;20229;-71
2021/11/18 00:46:21;;;;;;;;;;;;;;;3.12;58.76;96420.03;5011235;28;19928;-70
2021/11/18 00:48:47;;;;;;;;;;;;;;;3.36;59.40;96413.91;5020813;28;19925;-71
2021/11/18 00:51:13;;;;;;;;;;;;;;;3.02;59.91;96411.94;5020909;28;20011;-70
2021/11/18 00:53:39;;;;;;;;;;;;;;;3.04;60.12;96419.75;5002735;28;20299;-71
2021/11/18 00:56:05;;;;;;;;;;;;;;;3.22;59.88;96419.34;5020535;28;20024;-71
2021/11/18 00:58:30;;;;;;;;;;;;;;;3.26;58.95;96439.22;5021122;28;20166;-71
2021/11/18 01:00:55;;;;;;;;;;;;;;;3.08;59.59;96446.66;5020410;28;19921;-70
2021/11/18 01:03:21;;;;;;;;;;;;;;;2.62;61.70;96447.19;5020580;28;20016;-71
2021/11/18 01:05:47;;;;;;;;;;;;;;;2.72;61.71;96452.63;5020478;28;19925;-71
2021/11/18 01:08:13;;;;;;;;;;;;;;;2.88;61.59;96447.16;5035977;28;19960;-71
2021/11/18 01:10:42;;;;;;;;;;;;;;;2.83;62.45;96437.91;4999783;28;19921;-71
2021/11/18 01:13:07;;;;;;;;;;;;;;;2.83;61.33;96448.41;5032167;28;19999;-71
2021/11/18 01:15:33;;;;;;;;;;;;;;;2.94;61.01;96460.78;4999963;28;19917;-70
2021/11/18 01:18:00;;;;;;;;;;;;;;;2.89;60.73;96464.59;4982978;28;20386;-70
2021/11/18 01:20:25;;;;;;;;;;;;;;;3.08;61.08;96458.03;4999142;28;19921;-71
2021/11/18 01:22:51;;;;;;;;;;;;;;;3.41;59.60;96458.34;5001047;28;20413;-71
2021/11/18 01:25:17;;;;;;;;;;;;;;;2.91;61.28;96462.72;5000315;28;20386;-71
2021/11/18 01:27:43;;;;;;;;;;;;;;;3.00;61.17;96474.34;4998465;28;20264;-70
2021/11/18 01:30:10;;;;;;;;;;;;;;;2.71;61.80;96460.63;4999427;28;20003;-70
2021/11/18 01:32:35;;;;;;;;;;;;;;;3.16;60.48;96455.69;4998874;28;19960;-70
2021/11/18 01:35:00;;;;;;;;;;;;;;;2.40;62.72;96458.34;4982826;28;20553;-69
2021/11/18 01:37:26;;;;;;;;;;;;;;;2.56;62.70;96468.66;4981501;28;20024;-69
2021/11/18 01:39:51;;;;;;;;;;;;;;;2.83;61.15;96465.06;5000166;28;19928;-69
2021/11/18 01:42:16;;;;;;;;;;;;;;;2.80;61.79;96483.66;4997508;28;19993;-69
2021/11/18 01:44:42;;;;;;;;;;;;;;;2.10;63.86;96493.66;4989762;28;19921;-69
2021/11/18 01:47:08;;;;;;;;;;;;;;;2.51;63.82;96482.13;5000124;28;19921;-69
2021/11/18 01:49:34;;;;;;;;;;;;;;;2.60;63.27;96485.91;4998153;28;19929;-69
2021/11/18 01:52:00;;;;;;;;;;;;;;;1.69;66.47;96500.69;4998107;28;19925;-69
2021/11/18 01:54:26;;;;;;;;;;;;;;;1.81;65.85;96489.38;4998855;28;19917;-70
2021/11/18 01:56:52;;;;;;;;;;;;;;;2.13;64.69;96483.78;5011006;28;20418;-70
2021/11/18 01:59:21;;;;;;;;;;;;;;;1.92;65.52;96478.19;5003665;28;20026;-70
2021/11/18 02:01:47;;;;;;;;;;;;;;;1.64;66.73;96487.91;5002163;28;20221;-70
2021/11/18 02:04:14;;;;;;;;;;;;;;;1.20;67.88;96487.16;5003596;28;19987;-69
2021/11/18 02:06:43;;;;;;;;;;;;;;;1.23;68.01;96502.72;5003587;28;20362;-69
2021/11/18 02:09:10;;;;;;;;;;;;;;;1.26;68.00;96488.56;5001784;28;20016;-69
2021/11/18 02:11:48;;;;;;;;;;;;;;;1.48;67.45;96482.75;5001802;28;19913;-70
2021/11/18 02:14:14;;;;;;;;;;;;;;;1.11;67.92;96497.31;5003649;28;19921;-69
2021/11/18 02:16:40;;;;;;;;;;;;;;;1.71;65.57;96489.16;5006247;28;19974;-69
2021/11/18 02:19:07;;;;;;;;;;;;;;;1.26;67.61;96509.53;4986195;28;19925;-70
2021/11/18 02:21:33;;;;;;;;;;;;;;;1.69;66.03;96512.06;5002113;28;19946;-70
2021/11/18 02:23:59;;;;;;;;;;;;;;;1.86;66.06;96503.06;5003241;28;19921;-70
2021/11/18 02:26:25;;;;;;;;;;;;;;;2.45;63.57;96500.09;5002199;28;19917;-70
2021/11/18 02:28:51;;;;;;;;;;;;;;;1.83;65.13;96511.16;5001625;28;19940;-70
2021/11/18 02:31:21;;;;;;;;;;;;;;;2.18;63.99;96508.91;4985330;28;20304;-70
2021/11/18 02:33:47;;;;;;;;;;;;;;;2.29;64.13;96503.78;5002105;28;19933;-69
2021/11/18 02:36:12;;;;;;;;;;;;;;;2.59;62.79;96493.91;4985194;28;19917;-70
2021/11/18 02:38:37;;;;;;;;;;;;;;;1.76;65.01;96499.38;5002144;28;19921;-70
2021/11/18 02:41:03;;;;;;;;;;;;;;;2.16;64.59;96508.16;5002200;28;19922;-70
2021/11/18 02:43:28;;;;;;;;;;;;;;;2.01;64.42;96511.72;5001353;28;19919;-70
2021/11/18 02:45:53;;;;;;;;;;;;;;;2.00;64.70;96510.03;5003374;28;20440;-70
2021/11/18 02:48:19;;;;;;;;;;;;;;;1.99;64.90;96513.63;5001561;28;19925;-70
2021/11/18 02:50:46;;;;;;;;;;;;;;;2.12;64.60;96515.41;5002167;28;19994;-70
2021/11/18 02:53:12;;;;;;;;;;;;;;;1.97;64.60;96512.00;5001195;28;19941;-70
2021/11/18 02:55:41;;;;;;;;;;;;;;;2.02;64.66;96512.56;4996138;28;20011;-70
2021/11/18 02:58:07;;;;;;;;;;;;;;;2.30;62.01;96502.81;4994315;28;20377;-70
2021/11/18 03:00:51;;;;;;;;;;;;;;;2.34;63.15;96514.81;5001380;28;19921;-70
2021/11/18 03:03:16;;;;;;;;;;;;;;;2.14;62.56;96511.75;4985333;28;19921;-71
2021/11/18 03:05:42;;;;;;;;;;;;;;;2.33;62.26;96517.53;5001013;28;20314;-70
2021/11/18 03:08:07;;;;;;;;;;;;;;;2.41;62.12;96523.13;5009908;28;19929;-71
2021/11/18 03:10:33;;;;;;;;;;;;;;;1.80;64.18;96534.97;5022533;28;20008;-70
2021/11/18 03:12:58;;;;;;;;;;;;;;;2.47;62.22;96520.06;5004371;28;19932;-70
2021/11/18 03:15:23;;;;;;;;;;;;;;;2.06;63.47;96526.31;5004813;28;19917;-70
2021/11/18 03:17:49;;;;;;;;;;;;;;;2.14;63.08;96524.88;5004056;28;19921;-70
2021/11/18 03:20:15;;;;;;;;;;;;;;;2.40;62.24;96524.06;5022216;28;20208;-70
2021/11/18 03:22:40;;;;;;;;;;;;;;;2.44;62.18;96524.69;5004670;28;20382;-70
2021/11/18 03:25:05;;;;;;;;;;;;;;;1.77;63.26;96524.66;5004531;28;20015;-71
2021/11/18 03:27:31;;;;;;;;;;;;;;;2.29;62.09;96524.81;5003947;28;20169;-71
2021/11/18 03:29:56;;;;;;;;;;;;;;;2.26;62.07;96531.09;5004358;28;19917;-71
2021/11/18 03:32:21;;;;;;;;;;;;;;;1.74;64.34;96535.41;5021952;28;19952;-71
2021/11/18 03:34:46;;;;;;;;;;;;;;;2.25;62.22;96529.41;5022221;28;20016;-70
2021/11/18 03:37:12;;;;;;;;;;;;;;;2.27;62.05;96529.31;5022208;28;19928;-70
2021/11/18 03:39:38;;;;;;;;;;;;;;;2.23;62.00;96523.44;5021875;28;20549;-71
2021/11/18 03:42:04;;;;;;;;;;;;;;;2.28;62.12;96528.34;5022615;28;20440;-70
2021/11/18 03:44:30;;;;;;;;;;;;;;;2.39;61.21;96531.09;5004074;28;20436;-70
2021/11/18 03:47:02;;;;;;;;;;;;;;;2.47;60.93;96529.75;5004484;28;19913;-71
2021/11/18 03:49:28;;;;;;;;;;;;;;;2.68;60.83;96534.50;4987392;28;19925;-70
2021/11/18 03:51:55;;;;;;;;;;;;;;;2.71;60.39;96531.63;5005048;28;19975;-70
2021/11/18 03:54:21;;;;;;;;;;;;;;;2.76;59.93;96535.63;5025411;28;19918;-71
2021/11/18 03:56:46;;;;;;;;;;;;;;;2.34;60.75;96546.34;5014270;28;19929;-70
2021/11/18 03:59:13;;;;;;;;;;;;;;;2.46;60.23;96547.31;4996406;28;20397;-71
2021/11/18 04:01:38;;;;;;;;;;;;;;;2.82;59.69;96552.78;5007760;28;19944;-70
2021/11/18 04:04:04;;;;;;;;;;;;;;;2.70;60.31;96554.47;5007325;28;20382;-71
2021/11/18 04:06:29;;;;;;;;;;;;;;;2.52;61.26;96548.69;5010387;28;19928;-71
2021/11/18 04:08:55;;;;;;;;;;;;;;;2.72;60.20;96552.56;5025135;28;19925;-70
2021/11/18 04:11:20;;;;;;;;;;;;;;;2.95;59.57;96541.38;4991675;28;19975;-71
2021/11/18 04:13:45;;;;;;;;;;;;;;;2.70;59.33;96540.47;5025594;28;20016;-70
2021/11/18 04:16:10;;;;;;;;;;;;;;;2.84;59.20;96550.91;5025516;28;20378;-71
2021/11/18 04:18:36;;;;;;;;;;;;;;;2.75;59.86;96539.22;5025731;28;19916;-70
2021/11/18 04:21:01;;;;;;;;;;;;;;;2.62;59.55;96539.22;5007668;28;20410;-70
2021/11/18 04:23:26;;;;;;;;;;;;;;;2.14;61.63;96542.41;5007633;28;19913;-71
2021/11/18 04:25:52;;;;;;;;;;;;;;;2.38;60.57;96549.59;5025206;28;19917;-70
2021/11/18 04:28:19;;;;;;;;;;;;;;;2.77;59.46;96547.84;5006587;28;21358;-71
2021/11/18 04:30:47;;;;;;;;;;;;;;;3.11;58.64;96544.66;5007727;28;19939;-70
2021/11/18 04:33:12;;;;;;;;;;;;;;;3.12;57.67;96548.09;5007400;28;19921;-70
2021/11/18 04:35:37;;;;;;;;;;;;;;;3.09;58.72;96557.06;5007118;28;19943;-71
2021/11/18 04:38:03;;;;;;;;;;;;;;;3.12;58.12;96546.34;5026130;28;19935;-70
2021/11/18 04:40:31;;;;;;;;;;;;;;;3.35;57.54;96546.50;5006992;28;19917;-70
2021/11/18 04:42:56;;;;;;;;;;;;;;;3.61;56.31;96554.31;5007849;28;20003;-71
2021/11/18 04:45:22;;;;;;;;;;;;;;;3.42;57.46;96546.88;5007130;28;20385;-70
2021/11/18 04:47:47;;;;;;;;;;;;;;;3.34;58.25;96551.88;5024353;28;19933;-71
2021/11/18 04:50:13;;;;;;;;;;;;;;;3.65;57.04;96545.28;5025139;28;19975;-70
2021/11/18 04:52:38;;;;;;;;;;;;;;;3.96;55.68;96546.59;5024640;28;19921;-71
2021/11/18 04:55:04;;;;;;;;;;;;;;;4.21;54.87;96550.06;5000997;28;19913;-71
2021/11/18 04:57:29;;;;;;;;;;;;;;;3.34;56.48;96544.81;5018284;28;19917;-71
2021/11/18 04:59:55;;;;;;;;;;;;;;;3.89;55.77;96547.06;5006765;28;19917;-70
2021/11/18 05:02:21;;;;;;;;;;;;;;;3.77;55.01;96566.38;5023803;28;19992;-71
2021/11/18 05:04:46;;;;;;;;;;;;;;;3.94;55.68;96558.09;5006152;28;20325;-71
2021/11/18 05:07:11;;;;;;;;;;;;;;;4.30;55.68;96565.19;5008352;28;19917;-70
2021/11/18 05:09:37;;;;;;;;;;;;;;;4.53;52.62;96555.53;5024071;28;19929;-71
2021/11/18 05:12:02;;;;;;;;;;;;;;;4.70;53.66;96562.16;5023046;28;19924;-71
2021/11/18 05:14:27;;;;;;;;;;;;;;;4.69;51.86;96560.47;5022758;28;19983;-70
2021/11/18 05:16:53;;;;;;;;;;;;;;;4.69;51.97;96555.19;5006460;28;19917;-71
2021/11/18 05:19:21;;;;;;;;;;;;;;;4.06;53.52;96558.97;5024841;28;19928;-71
2021/11/18 05:21:46;;;;;;;;;;;;;;;3.99;53.91;96556.91;5023936;28;19921;-73
2021/11/18 05:24:11;;;;;;;;;;;;;;;3.92;54.62;96554.72;5023978;28;19928;-71
2021/11/18 05:26:37;;;;;;;;;;;;;;;4.71;51.55;96558.56;5024559;28;20735;-71
2021/11/18 05:29:02;;;;;;;;;;;;;;;4.67;51.88;96559.78;5023715;28;19925;-71
2021/11/18 05:31:29;;;;;;;;;;;;;;;4.66;51.96;96554.59;4989467;28;20452;-71
2021/11/18 05:33:54;;;;;;;;;;;;;;;4.77;50.83;96546.72;5006476;28;20360;-71
2021/11/18 05:36:19;;;;;;;;;;;;;;;4.35;52.30;96551.66;4988751;28;19929;-70
2021/11/18 05:38:45;;;;;;;;;;;;;;;4.10;52.39;96559.59;5023343;28;19925;-71
2021/11/18 05:41:13;;;;;;;;;;;;;;;4.26;52.71;96564.59;5005198;28;20008;-71
2021/11/18 05:43:42;;;;;;;;;;;;;;;3.75;54.21;96561.25;5005510;28;19947;-71
2021/11/18 05:46:07;;;;;;;;;;;;;;;4.30;51.86;96567.81;5005575;28;20232;-71
2021/11/18 05:48:33;;;;;;;;;;;;;;;4.19;52.27;96579.16;5005087;28;20449;-70
2021/11/18 05:50:58;;;;;;;;;;;;;;;3.74;52.99;96570.09;5005311;28;19917;-71
2021/11/18 05:53:31;;;;;;;;;;;;;;;3.38;54.43;96569.97;5005394;28;19968;-70
2021/11/18 05:55:57;;;;;;;;;;;;;;;3.46;54.42;96581.75;4994926;28;20283;-70
2021/11/18 05:58:22;;;;;;;;;;;;;;;3.16;54.75;96583.78;4981812;28;19925;-70
2021/11/18 06:00:47;;;;;;;;;;;;;;;3.32;55.84;96580.06;5007298;28;20913;-69
2021/11/18 06:03:13;;;;;;;;;;;;;;;3.61;55.24;96580.66;5023316;28;20028;-70
2021/11/18 06:05:38;;;;;;;;;;;;;;;3.52;55.15;96573.44;5016806;28;20038;-70
2021/11/18 06:08:03;;;;;;;;;;;;;;;3.70;55.46;96579.16;5022232;28;19932;-70
2021/11/18 06:10:29;;;;;;;;;;;;;;;3.91;54.51;96579.41;5023382;28;19921;-70
2021/11/18 06:12:54;;;;;;;;;;;;;;;4.00;54.67;96577.88;5004849;28;20345;-70
2021/11/18 06:15:20;;;;;;;;;;;;;;;3.28;54.58;96577.69;5004066;28;20471;-70
2021/11/18 06:17:45;;;;;;;;;;;;;;;3.73;54.06;96584.22;5004781;28;19928;-71
2021/11/18 06:20:11;;;;;;;;;;;;;;;4.11;52.52;96582.34;5004592;28;19927;-70
2021/11/18 06:22:36;;;;;;;;;;;;;;;4.15;52.51;96599.63;5004916;28;20204;-71
2021/11/18 06:25:02;;;;;;;;;;;;;;;4.26;52.01;96590.94;5022291;28;19983;-70
2021/11/18 06:27:28;;;;;;;;;;;;;;;4.26;52.35;96590.09;5004814;28;19925;-71
2021/11/18 06:29:53;;;;;;;;;;;;;;;4.25;51.88;96591.88;5021470;28;20028;-70
2021/11/18 06:32:18;;;;;;;;;;;;;;;4.36;53.04;96601.66;5003995;28;20349;-71
2021/11/18 06:34:44;;;;;;;;;;;;;;;4.44;52.56;96599.28;5004561;28;19984;-70
2021/11/18 06:37:09;;;;;;;;;;;;;;;4.51;53.40;96604.06;5022199;28;20039;-70
2021/11/18 06:39:35;;;;;;;;;;;;;;;4.72;50.68;96606.88;5021626;28;19971;-71
2021/11/18 06:42:02;;;;;;;;;;;;;;;4.54;51.53;96604.69;5022377;28;19921;-71
2021/11/18 06:44:27;;;;;;;;;;;;;;;4.49;51.58;96616.53;5004000;28;20717;-71
2021/11/18 06:46:52;;;;;;;;;;;;;;;4.63;52.86;96612.88;5022446;28;19917;-71
2021/11/18 06:49:18;;;;;;;;;;;;;;;4.57;51.60;96612.38;5021882;28;19921;-70
2021/11/18 06:51:43;;;;;;;;;;;;;;;4.91;49.93;96624.81;5004200;28;20386;-71
2021/11/18 06:54:10;;;;;;;;;;;;;;;4.60;50.27;96627.13;5021895;28;19917;-71
2021/11/18 06:56:35;;;;;;;;;;;;;;;4.47;51.71;96631.63;4997895;28;20026;-71
2021/11/18 06:59:00;;;;;;;;;;;;;;;4.47;51.32;96631.63;5022358;28;19925;-70
2021/11/18 07:01:26;;;;;;;;;;;;;;;4.10;52.60;96628.13;5021628;28;20382;-71
2021/11/18 07:03:51;;;;;;;;;;;;;;;4.00;52.11;96630.59;5004261;28;19925;-71
2021/11/18 07:06:18;;;;;;;;;;;;;;;3.53;53.92;96636.53;5021704;28;19913;-71
2021/11/18 07:08:44;;;;;;;;;;;;;;;4.36;52.14;96643.84;5000397;28;19929;-71
2021/11/18 07:11:09;;;;;;;;;;;;;;;4.62;50.87;96642.84;5000654;28;19928;-70
2021/11/18 07:13:35;;;;;;;;;;;;;;;4.15;52.22;96641.81;5000593;28;20341;-71
2021/11/18 07:16:01;;;;;;;;;;;;;;;3.28;53.85;96642.63;4988887;28;20275;-70
2021/11/18 07:18:26;;;;;;;;;;;;;;;4.51;51.42;96651.53;5001438;28;19949;-71
2021/11/18 07:20:51;;;;;;;;;;;;;;;4.94;49.32;96653.56;5000926;28;19926;-70
2021/11/18 07:23:17;;;;;;;;;;;;;;;4.83;50.29;96662.31;5000171;28;20294;-70
2021/11/18 07:25:42;;;;;;;;;;;;;;;4.91;49.83;96660.91;5000965;28;19995;-71
2021/11/18 07:28:07;;;;;;;;;;;;;;;5.00;49.42;96654.09;5001468;28;19921;-71
2021/11/18 07:30:33;;;;;;;;;;;;;;;4.88;49.77;96646.16;5000965;28;19960;-71
2021/11/18 07:32:58;;;;;;;;;;;;;;;4.94;49.48;96647.47;5001943;28;20322;-71
2021/11/18 07:35:26;;;;;;;;;;;;;;;4.95;49.60;96650.00;5000761;28;19957;-71
2021/11/18 07:37:51;;;;;;;;;;;;;;;4.69;50.38;96654.59;5001906;28;19929;-70
2021/11/18 07:40:18;;;;;;;;;;;;;;;4.87;49.38;96651.53;5002077;28;19941;-70
2021/11/18 07:42:43;;;;;;;;;;;;;;;4.78;49.97;96661.84;4997517;28;20011;-71
2021/11/18 07:45:08;;;;;;;;;;;;;;;4.36;50.96;96667.56;5001693;28;20012;-71
2021/11/18 07:47:34;;;;;;;;;;;;;;;3.99;52.30;96670.22;4996680;28;19925;-71
2021/11/18 07:50:00;;;;;;;;;;;;;;;3.65;53.42;96666.44;4996088;28;19933;-70
2021/11/18 07:52:25;;;;;;;;;;;;;;;4.31;51.76;96672.31;4996108;28;20418;-71
2021/11/18 07:54:50;;;;;;;;;;;;;;;4.47;51.06;96664.13;5024763;28;20427;-71
2021/11/18 07:57:15;;;;;;;;;;;;;;;4.71;50.66;96672.00;4992710;28;20517;-71
2021/11/18 07:59:41;;;;;;;;;;;;;;;4.43;51.37;96676.69;5004514;28;20034;-71
2021/11/18 08:02:06;;;;;;;;;;;;;;;4.14;51.88;96677.03;4996932;28;19922;-71
2021/11/18 08:04:31;;;;;;;;;;;;;;;3.20;54.66;96682.63;4997823;28;19960;-71
2021/11/18 08:06:59;;;;;;;;;;;;;;;3.89;52.90;96673.53;4996704;28;20315;-70
2021/11/18 08:09:24;;;;;;;;;;;;;;;4.59;50.96;96670.28;5016272;28;19956;-70
2021/11/18 08:11:50;;;;;;;;;;;;;;;4.57;51.53;96664.28;5005856;28;19975;-70
2021/11/18 08:14:16;;;;;;;;;;;;;;;4.35;51.53;96671.13;5000284;28;19923;-70
2021/11/18 08:16:41;;;;;;;;;;;;;;;3.84;52.94;96672.19;4999736;28;20122;-70
2021/11/18 08:19:07;;;;;;;;;;;;;;;4.41;51.37;96677.75;5016183;28;19926;-70
2021/11/18 08:21:33;;;;;;;;;;;;;;;3.88;52.40;96671.00;4998970;28;20472;-71
2021/11/18 08:23:58;;;;;;;;;;;;;;;3.06;54.92;96675.69;4999813;28;19925;-70
2021/11/18 08:26:25;;;;;;;;;;;;;;;3.90;53.23;96672.56;4999358;28;20015;-71
2021/11/18 08:28:50;;;;;;;;;;;;;;;4.03;53.02;96666.41;4999288;28;19929;-72
2021/11/18 08:31:15;;;;;;;;;;;;;;;3.84;53.12;96659.00;5017829;28;19921;-70
2021/11/18 08:33:40;;;;;;;;;;;;;;;3.23;53.96;96668.44;4998387;28;20304;-70
2021/11/18 08:36:06;;;;;;;;;;;;;;;3.70;53.91;96673.97;4999757;28;20368;-71
2021/11/18 08:38:31;;;;;;;;;;;;;;;4.01;52.26;96663.06;5018458;28;19996;-70
2021/11/18 08:40:59;;;;;;;;;;;;;;;3.17;55.17;96678.41;5020022;28;19928;-70
2021/11/18 08:43:25;;;;;;;;;;;;;;;3.62;53.99;96681.59;5002410;28;20545;-70
2021/11/18 08:45:50;;;;;;;;;;;;;;;3.25;55.43;96684.94;4981698;28;19929;-70
2021/11/18 08:48:15;;;;;;;;;;;;;;;3.14;55.62;96677.81;5034471;28;20393;-70
2021/11/18 08:50:42;;;;;;;;;;;;;;;2.78;57.02;96685.44;5035368;28;19990;-70
2021/11/18 08:53:07;;;;;;;;;;;;;;;3.05;55.87;96674.00;5001164;28;20055;-70
2021/11/18 08:55:33;;;;;;;;;;;;;;;2.44;57.58;96677.16;5012800;28;19972;-70
2021/11/18 08:57:59;;;;;;;;;;;;;;;3.02;55.89;96684.72;5014593;28;19925;-71
2021/11/18 09:00:37;;;;;;;;;;;;;;;2.63;57.11;96695.19;5002681;28;19921;-70
2021/11/18 09:03:02;;;;;;;;;;;;;;;2.73;57.66;96695.44;5020508;28;19960;-70
2021/11/18 09:05:28;;;;;;;;;;;;;;;3.19;55.72;96706.44;5000935;28;19979;-71
2021/11/18 09:07:53;;;;;;;;;;;;;;;3.21;54.39;96709.81;4985035;28;19932;-72
2021/11/18 09:10:19;;;;;;;;;;;;;;;3.62;54.74;96705.28;5034956;28;20041;-72
2021/11/18 09:12:44;;;;;;;;;;;;;;;3.85;53.26;96703.69;5002347;28;20449;-72
2021/11/18 09:15:11;;;;;;;;;;;;;;;3.44;54.44;96710.88;5001556;28;20012;-72
2021/11/18 09:17:36;;;;;;;;;;;;;;;3.85;52.70;96716.00;5018550;28;19927;-72
2021/11/18 09:20:03;;;;;;;;;;;;;;;3.22;55.33;96717.59;5022742;28;20028;-72
2021/11/18 09:22:28;;;;;;;;;;;;;;;3.81;54.07;96712.72;5039114;28;20177;-72
2021/11/18 09:24:55;;;;;;;;;;;;;;;3.88;54.09;96721.88;5022826;28;19921;-72
2021/11/18 09:27:23;;;;;;;;;;;;;;;4.15;52.85;96731.41;4989634;28;19936;-72
2021/11/18 09:29:48;;;;;;;;;;;;;;;3.60;54.42;96726.47;4995520;28;19944;-71
2021/11/18 09:32:13;;;;;;;;;;;;;;;4.01;53.65;96731.59;5019252;28;19949;-72
2021/11/18 09:34:39;;;;;;;;;;;;;;;4.25;52.96;96736.06;5022011;28;19925;-71
2021/11/18 09:37:04;;;;;;;;;;;;;;;3.91;53.59;96740.13;5004035;28;19920;-72
2021/11/18 09:39:29;;;;;;;;;;;;;;;3.96;52.87;96736.31;5015534;28;19921;-72
2021/11/18 09:42:03;;;;;;;;;;;;;;;4.35;53.11;96736.22;5005608;28;19939;-72
2021/11/18 09:44:31;;;;;;;;;;;;;;;4.33;53.54;96744.25;5005757;28;19925;-74
2021/11/18 09:47:15;;;;;;;;;;;;;;;4.52;51.50;96738.47;5005636;28;19921;-72
2021/11/18 09:49:49;;;;;;;;;;;;;;;4.58;51.73;96731.91;5022172;28;20122;-65
2021/11/18 09:52:17;;;;;;;;;;;;;;;4.97;51.30;96721.97;5003382;28;20283;-77
2021/11/18 09:54:42;;;;;;;;;;;;;;;4.47;53.13;96724.78;5024164;28;19957;-77
2021/11/18 09:57:17;;;;;;;;;;;;;;;4.44;51.92;96720.56;5023448;28;19949;-75
2021/11/18 09:59:42;;;;;;;;;;;;;;;3.65;55.02;96724.38;5016700;28;19914;-76
2021/11/18 10:02:27;;;;;;;;;;;;;;;4.80;51.80;96725.06;5006565;28;20334;-75
2021/11/18 10:04:59;;;;;;;;;;;;;;;4.61;55.73;96721.13;5024312;28;19921;-77
2021/11/18 10:07:44;;;;;;;;;;;;;;;3.83;53.54;96717.91;5039459;28;20314;-77
2021/11/18 10:10:28;;;;;;;;;;;;;;;4.17;52.94;96732.16;5006470;28;19940;-76
2021/11/18 10:13:12;;;;;;;;;;;;;;;4.63;52.90;96729.75;5024859;28;19917;-76
2021/11/18 10:15:48;;;;;;;;;;;;;;;4.75;56.17;96741.22;5024445;28;19921;-77
2021/11/18 10:18:16;;;;;;;;;;;;;;;4.87;52.76;96746.53;5017815;28;19921;-78
2021/11/18 10:20:41;;;;;;;;;;;;;;;5.08;54.99;96752.03;5005973;28;19932;-78
2021/11/18 10:23:08;;;;;;;;;;;;;;;5.45;51.92;96753.69;4990117;28;20020;-76
2021/11/18 10:25:35;;;;;;;;;;;;;;;5.33;49.15;96751.03;5006448;28;20033;-77
2021/11/18 10:28:21;;;;;;;;;;;;;;;4.42;51.41;96748.03;5006149;28;19931;-76
2021/11/18 10:30:54;;;;;;;;;;;;;;;5.33;52.29;96737.81;5024542;28;19925;-68
2021/11/18 10:33:20;;;;;;;;;;;;;;;5.14;53.05;96740.19;5006195;28;19921;-77
2021/11/18 10:35:46;;;;;;;;;;;;;;;5.56;49.72;96729.94;5006276;28;20397;-76
2021/11/18 10:38:16;;;;;;;;;;;;;;;5.63;49.01;96734.72;5023871;28;19925;-75
2021/11/18 10:40:50;;;;;;;;;;;;;;;5.32;49.46;96724.72;5005191;28;19929;-75
2021/11/18 10:43:17;;;;;;;;;;;;;;;5.44;49.16;96733.53;5005443;28;19918;-74
2021/11/18 10:45:44;;;;;;;;;;;;;;;5.98;49.33;96723.19;5003368;28;20294;-75
2021/11/18 10:48:28;;;;;;;;;;;;;;;6.10;48.03;96724.03;5023237;28;19928;-76
2021/11/18 10:51:04;;;;;;;;;;;;;;;5.76;48.19;96726.69;5005911;28;19921;-72
2021/11/18 10:53:31;;;;;;;;;;;;;;;5.99;47.99;96716.97;4988877;28;20333;-74
2021/11/18 10:55:59;;;;;;;;;;;;;;;5.68;48.38;96719.38;4988841;28;19975;-74
2021/11/18 10:58:24;;;;;;;;;;;;;;;4.43;51.19;96729.41;5037250;28;19917;-75
2021/11/18 11:00:55;;;;;;;;;;;;;;;5.32;49.38;96725.59;5009711;28;20299;-74
2021/11/18 11:03:23;;;;;;;;;;;;;;;5.13;50.30;96709.47;5039965;28;20139;-75
2021/11/18 11:05:48;;;;;;;;;;;;;;;5.48;49.80;96714.66;5022451;28;19940;-74
2021/11/18 11:08:20;;;;;;;;;;;;;;;6.20;47.80;96701.19;5022954;28;19925;-76
2021/11/18 11:10:45;;;;;;;;;;;;;;;6.58;47.11;96703.50;5005769;28;19913;-76
2021/11/18 11:13:16;;;;;;;;;;;;;;;6.29;48.09;96707.50;4988890;28;19987;-77
2021/11/18 11:15:47;;;;;;;;;;;;;;;6.53;47.60;96700.41;5005071;28;20006;-75
2021/11/18 11:18:21;;;;;;;;;;;;;;;6.45;46.97;96706.25;5037749;28;20395;-75
2021/11/18 11:20:56;;;;;;;;;;;;;;;6.57;46.82;96704.47;5034235;28;19925;-75
2021/11/18 11:23:21;;;;;;;;;;;;;;;6.45;46.16;96690.41;5022425;28;19921;-75
2021/11/18 11:25:55;;;;;;;;;;;;;;;6.64;46.52;96689.78;5022876;28;19917;-74
2021/11/18 11:28:40;;;;;;;;;;;;;;;6.38;47.88;96701.50;5038077;28;20345;-75
2021/11/18 11:31:23;;;;;;;;;;;;;;;6.01;47.44;96693.03;5022896;28;19917;-77
2021/11/18 11:34:07;;;;;;;;;;;;;;;6.22;47.49;96691.31;5020893;28;19928;-76
2021/11/18 11:36:37;;;;;;;;;;;;;;;6.67;46.56;96678.94;5013394;28;19940;-77
2021/11/18 11:39:18;;;;;;;;;;;;;;;6.31;48.11;96683.59;5025780;28;19940;-75
2021/11/18 11:41:52;;;;;;;;;;;;;;;6.29;48.01;96686.34;5032016;28;19929;-76
2021/11/18 11:44:18;;;;;;;;;;;;;;;6.45;47.20;96680.66;5010328;28;19921;-75
2021/11/18 11:46:46;;;;;;;;;;;;;;;6.68;47.41;96680.59;5023615;28;19990;-78
2021/11/18 11:49:26;;;;;;;;;;;;;;;8.25;43.94;96689.47;5023438;28;20583;-78
2021/11/18 11:51:55;;;;;;;;;;;;;;;8.77;42.39;96677.78;5023533;28;20032;-76
2021/11/18 11:54:39;;;;;;;;;;;;;;;8.94;41.04;96665.59;5037834;28;20012;-74
2021/11/18 11:57:08;;;;;;;;;;;;;;;9.49;41.06;96672.09;5021452;28;19921;-73
2021/11/18 11:59:36;;;;;;;;;;;;;;;9.71;40.33;96675.34;4987156;28;20023;-72
2021/11/18 12:02:34;;;;;;;;;;;;;;;11.03;37.49;96677.72;5004198;28;19924;-72
2021/11/18 12:05:02;;;;;;;;;;;;;;;10.87;36.81;96676.59;4976495;28;19925;-73
2021/11/18 12:07:48;;;;;;;;;;;;;;;12.12;34.66;96682.72;5036846;28;20400;-72
2021/11/18 12:10:20;;;;;;;;;;;;;;;11.41;35.68;96687.34;5003976;28;19929;-74
2021/11/18 12:12:50;;;;;;;;;;;;;;;11.06;36.27;96689.91;5037782;28;19952;-74
2021/11/18 12:15:17;;;;;;;;;;;;;;;10.82;36.87;96670.06;5008331;28;19928;-75
2021/11/18 12:17:44;;;;;;;;;;;;;;;10.25;37.66;96660.53;5007667;28;20025;-77
2021/11/18 12:20:12;;;;;;;;;;;;;;;11.28;35.52;96669.94;5055077;28;19917;-75
2021/11/18 12:22:37;;;;;;;;;;;;;;;11.67;35.16;96659.81;5025549;28;19913;-77
2021/11/18 12:25:08;;;;;;;;;;;;;;;13.02;33.02;96652.81;5026231;28;19917;-75
2021/11/18 12:27:34;;;;;;;;;;;;;;;12.51;33.51;96661.78;5025231;28;20364;-74
2021/11/18 12:30:17;;;;;;;;;;;;;;;12.37;33.88;96663.25;5008525;28;20016;-74
2021/11/18 12:33:09;;;;;;;;;;;;;;;11.86;34.31;96659.56;5025375;28;19928;-65
2021/11/18 12:35:34;;;;;;;;;;;;;;;12.08;34.46;96648.50;5021359;28;19924;-77
2021/11/18 12:37:59;;;;;;;;;;;;;;;11.97;34.13;96645.09;5041324;28;19913;-76
2021/11/18 12:40:32;;;;;;;;;;;;;;;11.29;35.78;96642.28;5007804;28;20357;-75
2021/11/18 12:43:00;;;;;;;;;;;;;;;10.31;37.50;96641.31;4993204;28;20027;-76
2021/11/18 12:45:26;;;;;;;;;;;;;;;10.60;37.82;96633.09;5019241;28;19928;-75
2021/11/18 12:47:51;;;;;;;;;;;;;;;10.03;38.32;96638.69;5040955;28;20013;-76
2021/11/18 12:50:16;;;;;;;;;;;;;;;9.49;40.31;96628.72;5024701;28;19925;-76
2021/11/18 12:52:42;;;;;;;;;;;;;;;9.35;40.12;96619.41;5025479;28;19929;-75
2021/11/18 12:55:14;;;;;;;;;;;;;;;8.49;41.40;96614.78;5012952;28;19936;-74